createdAt,value
2022-11-24T00:01:16.358Z,7.70
2022-11-24T00:03:45.560Z,7.70
2022-11-24T00:06:15.766Z,7.70
2022-11-24T00:08:45.811Z,7.72
2022-11-24T00:11:20.104Z,7.80
2022-11-24T00:13:47.375Z,7.80
2022-11-24T00:16:16.485Z,7.80
2022-11-24T00:18:45.685Z,7.80
2022-11-24T00:21:14.347Z,7.80
2022-11-24T00:23:41.277Z,7.80
2022-11-24T00:26:22.935Z,7.80
2022-11-24T00:28:52.280Z,7.80
2022-11-24T00:31:24.890Z,7.80
2022-11-24T00:33:55.457Z,7.80
2022-11-24T00:36:25.905Z,7.80
2022-11-24T00:38:58.698Z,7.80
2022-11-24T00:41:26.717Z,7.80
2022-11-24T00:43:53.840Z,7.80
2022-11-24T00:46:22.218Z,7.80
2022-11-24T00:48:49.359Z,7.80
2022-11-24T00:51:18.049Z,7.80
2022-11-24T00:53:45.082Z,7.80
2022-11-24T00:56:13.201Z,7.80
2022-11-24T00:58:39.930Z,7.80
2022-11-24T01:01:09.113Z,7.80
2022-11-24T01:03:36.152Z,7.80
2022-11-24T01:06:06.108Z,7.80
2022-11-24T01:08:34.051Z,7.78
2022-11-24T01:11:10.875Z,7.74
2022-11-24T01:13:38.271Z,7.80
2022-11-24T01:16:05.346Z,7.80
2022-11-24T01:18:32.083Z,7.78
2022-11-24T01:20:59.088Z,7.74
2022-11-24T01:23:25.779Z,7.70
2022-11-24T01:25:52.461Z,7.70
2022-11-24T01:28:19.145Z,7.70
2022-11-24T01:30:47.355Z,7.70
2022-11-24T01:33:14.039Z,7.60
2022-11-24T01:35:40.741Z,7.60
2022-11-24T01:38:07.401Z,7.60
2022-11-24T01:40:34.141Z,7.60
2022-11-24T01:43:00.846Z,7.60
2022-11-24T01:45:35.771Z,7.60
2022-11-24T01:48:08.489Z,7.60
2022-11-24T01:50:36.545Z,7.60
2022-11-24T01:53:04.812Z,7.60
2022-11-24T01:55:36.991Z,7.60
2022-11-24T01:58:17.444Z,7.60
2022-11-24T02:00:45.790Z,7.64
2022-11-24T02:03:16.386Z,7.64
2022-11-24T02:06:12.105Z,7.68
2022-11-24T02:08:51.306Z,7.68
2022-11-24T02:11:20.270Z,7.60
2022-11-24T02:13:48.069Z,7.60
2022-11-24T02:16:14.876Z,7.60
2022-11-24T02:18:42.852Z,7.60
2022-11-24T02:21:13.763Z,7.60
2022-11-24T02:24:23.252Z,7.50
2022-11-24T02:26:52.140Z,7.50
2022-11-24T02:29:20.514Z,7.50
2022-11-24T02:31:55.174Z,7.50
2022-11-24T02:34:21.821Z,7.48
2022-11-24T02:36:48.557Z,7.50
2022-11-24T02:39:16.201Z,7.50
2022-11-24T02:41:49.732Z,7.50
2022-11-24T02:44:20.486Z,7.50
2022-11-24T02:46:47.146Z,7.50
2022-11-24T02:49:13.812Z,7.50
2022-11-24T02:51:41.049Z,7.50
2022-11-24T02:54:07.866Z,7.50
2022-11-24T02:56:34.592Z,7.50
2022-11-24T02:59:01.619Z,7.50
2022-11-24T03:01:28.374Z,7.50
2022-11-24T03:03:55.088Z,7.50
2022-11-24T03:06:21.767Z,7.50
2022-11-24T03:08:48.420Z,7.50
2022-11-24T03:11:15.170Z,7.50
2022-11-24T03:13:41.866Z,7.54
2022-11-24T03:16:10.493Z,7.56
2022-11-24T03:18:37.292Z,7.60
2022-11-24T03:21:04.127Z,7.60
2022-11-24T03:23:30.800Z,7.60
2022-11-24T03:26:12.260Z,7.60
2022-11-24T03:28:39.242Z,7.60
2022-11-24T03:31:07.749Z,7.60
2022-11-24T03:33:35.338Z,7.60
2022-11-24T03:36:03.684Z,7.60
2022-11-24T03:38:30.421Z,7.60
2022-11-24T03:40:57.133Z,7.60
2022-11-24T03:43:23.862Z,7.60
2022-11-24T03:45:50.982Z,7.60
2022-11-24T03:48:21.305Z,7.60
2022-11-24T03:50:59.641Z,7.60
2022-11-24T03:53:29.030Z,7.60
2022-11-24T03:55:56.634Z,7.60
2022-11-24T03:58:24.143Z,7.60
2022-11-24T04:00:53.372Z,7.60
2022-11-24T04:03:21.123Z,7.60
2022-11-24T04:05:48.548Z,7.60
2022-11-24T04:08:16.145Z,7.60
2022-11-24T04:10:43.246Z,7.60
2022-11-24T04:13:18.717Z,7.60
2022-11-24T04:15:45.351Z,7.60
2022-11-24T04:18:13.426Z,7.60
2022-11-24T04:20:41.734Z,7.60
2022-11-24T04:23:09.678Z,7.60
2022-11-24T04:25:37.238Z,7.60
2022-11-24T04:28:04.303Z,7.60
2022-11-24T04:30:31.311Z,7.60
2022-11-24T04:32:58.090Z,7.60
2022-11-24T04:35:25.317Z,7.60
2022-11-24T04:37:51.874Z,7.60
2022-11-24T04:40:19.639Z,7.60
2022-11-24T04:42:56.462Z,7.62
2022-11-24T04:45:24.007Z,7.60
2022-11-24T04:47:50.642Z,7.70
2022-11-24T04:50:18.017Z,7.68
2022-11-24T04:52:44.722Z,7.70
2022-11-24T04:55:11.453Z,7.70
2022-11-24T04:57:38.224Z,7.70
2022-11-24T05:00:06.179Z,7.74
2022-11-24T05:02:32.824Z,7.80
2022-11-24T05:04:59.436Z,7.80
2022-11-24T05:07:26.064Z,7.80
2022-11-24T05:10:11.492Z,7.80
2022-11-24T05:12:39.469Z,7.80
2022-11-24T05:15:07.084Z,7.80
2022-11-24T05:17:37.430Z,7.80
2022-11-24T05:20:06.949Z,7.80
2022-11-24T05:22:34.586Z,7.80
2022-11-24T05:25:01.913Z,7.80
2022-11-24T05:27:28.624Z,7.80
2022-11-24T05:29:55.353Z,7.84
2022-11-24T05:32:21.918Z,7.80
2022-11-24T05:34:48.825Z,7.80
2022-11-24T05:37:15.567Z,7.80
2022-11-24T05:39:42.381Z,7.80
2022-11-24T05:42:27.834Z,7.80
2022-11-24T05:44:54.613Z,7.80
2022-11-24T05:47:21.756Z,7.80
2022-11-24T05:49:48.381Z,7.80
2022-11-24T05:52:16.048Z,7.80
2022-11-24T05:54:42.756Z,7.90
2022-11-24T05:57:09.420Z,7.90
2022-11-24T05:59:36.003Z,7.90
2022-11-24T06:02:03.020Z,7.90
2022-11-24T06:04:29.797Z,7.90
2022-11-24T06:06:56.378Z,7.90
2022-11-24T06:09:22.937Z,7.94
2022-11-24T06:11:49.545Z,7.96
2022-11-24T06:14:16.147Z,8.00
2022-11-24T06:16:42.939Z,8.00
2022-11-24T06:19:11.210Z,8.00
2022-11-24T06:21:38.242Z,8.00
2022-11-24T06:24:05.802Z,8.00
2022-11-24T06:26:32.635Z,8.00
2022-11-24T06:28:59.611Z,8.00
2022-11-24T06:31:26.318Z,8.10
2022-11-24T06:33:53.245Z,8.10
2022-11-24T06:36:20.411Z,8.10
2022-11-24T06:38:47.233Z,8.10
2022-11-24T06:41:15.956Z,8.10
2022-11-24T06:43:42.934Z,8.10
2022-11-24T06:46:09.917Z,8.18
2022-11-24T06:48:36.809Z,8.20
2022-11-24T06:51:11.000Z,8.20
2022-11-24T06:53:38.470Z,8.20
2022-11-24T06:56:16.189Z,8.20
2022-11-24T06:58:49.344Z,8.22
2022-11-24T07:01:19.047Z,8.26
2022-11-24T07:03:46.497Z,8.24
2022-11-24T07:06:13.166Z,8.30
2022-11-24T07:08:39.994Z,8.30
2022-11-24T07:11:15.530Z,8.30
2022-11-24T07:13:44.045Z,8.30
2022-11-24T07:16:19.419Z,8.30
2022-11-24T07:18:48.438Z,8.40
2022-11-24T07:21:16.598Z,8.40
2022-11-24T07:23:43.648Z,8.40
2022-11-24T07:26:11.178Z,8.40
2022-11-24T07:28:38.720Z,8.46
2022-11-24T07:31:12.489Z,8.46
2022-11-24T07:33:39.806Z,8.40
2022-11-24T07:36:08.425Z,8.40
2022-11-24T07:38:36.117Z,8.40
2022-11-24T07:41:07.994Z,8.30
2022-11-24T07:43:37.138Z,8.30
2022-11-24T07:46:06.902Z,8.30
2022-11-24T07:48:34.731Z,8.30
2022-11-24T07:51:03.113Z,8.30
2022-11-24T07:53:29.763Z,8.30
2022-11-24T07:56:01.801Z,8.30
2022-11-24T07:58:34.462Z,8.30
2022-11-24T08:01:16.397Z,8.40
2022-11-24T08:03:44.447Z,8.40
2022-11-24T08:06:25.128Z,8.46
2022-11-24T08:08:55.394Z,8.50
2022-11-24T08:11:22.528Z,8.50
2022-11-24T08:13:49.849Z,8.58
2022-11-24T08:16:18.958Z,8.60
2022-11-24T08:18:54.663Z,8.60
2022-11-24T08:21:25.482Z,8.60
2022-11-24T08:23:56.445Z,8.62
2022-11-24T08:26:25.183Z,8.70
2022-11-24T08:28:58.901Z,8.80
2022-11-24T08:31:33.156Z,8.90
2022-11-24T08:34:02.290Z,9.00
2022-11-24T08:36:29.087Z,9.00
2022-11-24T08:38:58.297Z,9.10
2022-11-24T08:41:26.246Z,9.20
2022-11-24T08:43:54.758Z,9.30
2022-11-24T08:46:21.999Z,9.40
2022-11-24T08:48:51.175Z,9.60
2022-11-24T08:51:22.108Z,9.70
2022-11-24T08:53:49.160Z,9.80
2022-11-24T08:56:15.942Z,9.90
2022-11-24T08:58:42.941Z,10.00
2022-11-24T09:01:16.246Z,10.10
2022-11-24T09:03:49.969Z,10.28
2022-11-24T09:06:22.767Z,10.40
2022-11-24T09:08:59.867Z,10.50
2022-11-24T09:11:27.539Z,10.50
2022-11-24T09:13:55.520Z,10.50
2022-11-24T09:16:26.524Z,10.50
2022-11-24T09:19:02.257Z,10.40
2022-11-24T09:21:31.040Z,10.40
2022-11-24T09:23:58.009Z,10.30
2022-11-24T09:26:34.614Z,10.30
2022-11-24T09:29:04.201Z,10.40
2022-11-24T09:31:35.428Z,10.50
2022-11-24T09:34:04.994Z,10.60
2022-11-24T09:36:34.833Z,10.70
2022-11-24T09:39:01.433Z,10.70
2022-11-24T09:41:52.624Z,10.70
2022-11-24T09:44:40.724Z,10.70
2022-11-24T09:47:26.494Z,10.70
2022-11-24T09:50:04.262Z,10.70
2022-11-24T09:53:05.652Z,10.72
2022-11-24T09:55:50.623Z,10.80
2022-11-24T09:58:55.681Z,10.90
2022-11-24T10:01:38.122Z,11.52
2022-11-24T10:04:18.603Z,12.32
2022-11-24T10:07:13.345Z,13.10
2022-11-24T10:10:48.263Z,13.54
2022-11-24T10:14:01.906Z,13.70
2022-11-24T10:16:58.575Z,13.40
2022-11-24T10:19:37.233Z,13.30
2022-11-24T10:22:06.751Z,12.90
2022-11-24T10:24:57.708Z,12.60
2022-11-24T10:27:38.017Z,12.12
2022-11-24T10:30:18.592Z,11.80
2022-11-24T10:33:12.353Z,11.48
2022-11-24T10:35:54.002Z,11.10
2022-11-24T10:38:30.562Z,11.00
2022-11-24T10:41:07.908Z,10.80
2022-11-24T10:43:34.978Z,10.60
2022-11-24T10:46:19.937Z,10.50
2022-11-24T10:49:05.544Z,10.30
2022-11-24T10:51:57.999Z,10.10
2022-11-24T10:54:24.581Z,9.90
2022-11-24T10:56:53.901Z,9.80
2022-11-24T10:59:29.402Z,9.76
2022-11-24T11:01:56.413Z,9.70
2022-11-24T11:04:35.387Z,9.60
2022-11-24T11:07:18.823Z,9.50
2022-11-24T11:09:47.504Z,9.50
2022-11-24T11:12:47.390Z,9.40
2022-11-24T11:15:34.630Z,9.36
2022-11-24T11:18:01.785Z,9.30
2022-11-24T11:20:37.583Z,9.30
2022-11-24T11:23:26.911Z,9.20
2022-11-24T11:26:19.132Z,9.18
2022-11-24T11:34:54.499Z,9.00
2022-11-24T11:37:25.846Z,9.00
2022-11-24T11:39:54.925Z,9.00
2022-11-24T11:45:28.276Z,9.10
2022-11-24T11:48:21.311Z,9.20
2022-11-24T11:51:24.520Z,9.16
2022-11-24T11:54:16.118Z,9.10
2022-11-24T11:56:46.178Z,9.10
2022-11-24T11:59:39.167Z,9.10
2022-11-24T12:02:57.004Z,9.20
2022-11-24T12:05:51.012Z,9.10
2022-11-24T12:08:31.336Z,9.20
2022-11-24T12:11:26.898Z,9.30
2022-11-24T12:14:24.176Z,9.30
2022-11-24T12:17:40.721Z,9.30
2022-11-24T12:20:28.420Z,9.40
2022-11-24T12:23:58.750Z,9.40
2022-11-24T12:27:10.033Z,9.50
2022-11-24T12:30:08.902Z,9.60
2022-11-24T12:33:15.332Z,9.60
2022-11-24T12:35:46.731Z,9.60
2022-11-24T12:39:16.661Z,9.60
2022-11-24T12:42:12.045Z,9.60
2022-11-24T12:45:28.739Z,9.50
2022-11-24T12:48:15.462Z,9.50
2022-11-24T12:50:44.407Z,9.60
2022-11-24T12:53:13.959Z,9.60
2022-11-24T12:55:42.259Z,9.70
2022-11-24T12:58:36.838Z,9.70
2022-11-24T13:01:21.817Z,9.80
2022-11-24T13:04:05.107Z,9.80
2022-11-24T13:06:49.433Z,9.80
2022-11-24T13:09:17.219Z,9.70
2022-11-24T13:11:46.088Z,9.70
2022-11-24T13:14:29.205Z,9.60
2022-11-24T13:17:28.573Z,9.50
2022-11-24T13:19:50.782Z,9.50
2022-11-24T13:22:25.219Z,9.40
2022-11-24T13:25:15.103Z,9.38
2022-11-24T13:27:57.539Z,9.30
2022-11-24T13:30:33.628Z,9.30
2022-11-24T13:33:16.406Z,9.30
2022-11-24T13:36:02.300Z,9.30
2022-11-24T13:38:49.266Z,9.30
2022-11-24T13:41:31.799Z,9.30
2022-11-24T13:44:13.832Z,9.30
2022-11-24T13:47:06.172Z,9.30
2022-11-24T13:49:46.458Z,9.36
2022-11-24T13:52:58.125Z,9.40
2022-11-24T13:55:33.946Z,9.40
2022-11-24T13:58:31.790Z,9.30
2022-11-24T14:01:12.673Z,9.30
2022-11-24T14:04:28.228Z,9.20
2022-11-24T14:06:57.683Z,9.16
2022-11-24T14:10:06.494Z,9.10
2022-11-24T14:12:34.074Z,9.00
2022-11-24T14:15:22.565Z,9.00
2022-11-24T14:17:49.191Z,9.00
2022-11-24T14:20:25.971Z,9.00
2022-11-24T14:22:53.972Z,9.00
2022-11-24T14:25:30.375Z,9.00
2022-11-24T14:27:57.288Z,9.00
2022-11-24T14:30:25.785Z,9.00
2022-11-24T14:33:02.087Z,9.00
2022-11-24T14:35:34.490Z,9.00
2022-11-24T14:38:06.769Z,9.00
2022-11-24T14:40:51.417Z,9.00
2022-11-24T14:43:33.379Z,9.00
2022-11-24T14:46:09.328Z,9.00
2022-11-24T14:48:47.055Z,9.00
2022-11-24T14:51:24.269Z,9.00
2022-11-24T14:54:00.907Z,9.00
2022-11-24T14:56:38.886Z,8.70
2022-11-24T14:59:24.608Z,8.40
2022-11-24T15:01:51.571Z,8.30
2022-11-24T15:07:24.688Z,7.92
2022-11-24T15:09:59.207Z,7.90
2022-11-24T15:12:39.856Z,7.86
2022-11-24T15:15:15.799Z,7.90
2022-11-24T15:17:52.742Z,8.00
2022-11-24T15:20:42.282Z,8.00
2022-11-24T15:23:29.878Z,8.00
2022-11-24T15:25:58.329Z,8.00
2022-11-24T15:28:28.099Z,8.00
2022-11-24T15:31:00.958Z,8.00
2022-11-24T15:33:27.959Z,7.90
2022-11-24T15:35:55.084Z,7.90
2022-11-24T15:38:22.489Z,7.90
2022-11-24T15:40:52.624Z,7.90
2022-11-24T15:43:39.752Z,7.90
2022-11-24T15:46:08.360Z,7.90
2022-11-24T15:48:35.365Z,7.80
2022-11-24T15:51:05.962Z,7.80
2022-11-24T15:53:38.961Z,7.80
2022-11-24T15:56:12.763Z,7.78
2022-11-24T15:58:39.418Z,7.70
2022-11-24T16:01:06.774Z,7.70
2022-11-24T16:03:49.470Z,7.64
2022-11-24T16:06:25.329Z,7.64
2022-11-24T16:08:54.125Z,7.60
2022-11-24T16:11:22.411Z,7.60
2022-11-24T16:13:52.983Z,7.60
2022-11-24T16:16:21.933Z,7.60
2022-11-24T16:18:48.751Z,7.70
2022-11-24T16:21:15.407Z,7.70
2022-11-24T16:23:42.086Z,7.70
2022-11-24T16:26:09.976Z,7.60
2022-11-24T16:28:36.632Z,7.60
2022-11-24T16:31:03.330Z,7.60
2022-11-24T16:33:30.221Z,7.60
2022-11-24T16:35:56.921Z,7.52
2022-11-24T16:38:23.739Z,7.50
2022-11-24T16:40:56.430Z,7.50
2022-11-24T16:43:24.469Z,7.50
2022-11-24T16:46:25.375Z,7.44
2022-11-24T16:48:55.067Z,7.40
2022-11-24T16:51:26.143Z,7.40
2022-11-24T16:54:00.168Z,7.34
2022-11-24T16:56:31.051Z,7.30
2022-11-24T16:58:57.641Z,7.30
2022-11-24T17:01:25.887Z,7.30
2022-11-24T17:03:52.881Z,7.30
2022-11-24T17:06:19.634Z,7.30
2022-11-24T17:08:47.501Z,7.20
2022-11-24T17:11:24.384Z,7.20
2022-11-24T17:13:52.536Z,7.10
2022-11-24T17:16:24.895Z,7.10
2022-11-24T17:18:52.342Z,7.10
2022-11-24T17:21:22.079Z,7.10
2022-11-24T17:23:59.888Z,7.10
2022-11-24T17:26:27.801Z,7.10
2022-11-24T17:28:56.031Z,7.10
2022-11-24T17:31:25.502Z,7.10
2022-11-24T17:33:57.982Z,7.10
2022-11-24T17:36:25.425Z,7.10
2022-11-24T17:38:52.279Z,7.10
2022-11-24T17:41:20.427Z,7.10
2022-11-24T17:43:58.427Z,7.10
2022-11-24T17:46:27.410Z,7.00
2022-11-24T17:48:54.392Z,7.00
2022-11-24T17:51:24.790Z,6.98
2022-11-24T17:53:53.943Z,6.90
2022-11-24T17:56:24.461Z,6.90
2022-11-24T17:58:57.580Z,6.90
2022-11-24T18:01:26.631Z,6.90
2022-11-24T18:03:54.201Z,6.90
2022-11-24T18:06:25.300Z,6.90
2022-11-24T18:08:54.008Z,6.90
2022-11-24T18:11:32.457Z,6.90
2022-11-24T18:14:02.998Z,6.90
2022-11-24T18:16:34.537Z,6.90
2022-11-24T18:19:09.163Z,6.90
2022-11-24T18:21:40.799Z,6.88
2022-11-24T18:24:12.198Z,6.90
2022-11-24T18:26:40.887Z,6.82
2022-11-24T18:29:08.416Z,6.80
2022-11-24T18:31:35.933Z,6.80
2022-11-24T18:34:05.322Z,6.80
2022-11-24T18:36:33.272Z,6.80
2022-11-24T18:39:08.793Z,6.70
2022-11-24T18:41:36.405Z,6.70
2022-11-24T18:44:07.819Z,6.70
2022-11-24T18:46:35.919Z,6.64
2022-11-24T18:49:02.495Z,6.60
2022-11-24T18:51:29.919Z,6.60
2022-11-24T18:53:59.255Z,6.60
2022-11-24T18:56:26.662Z,6.52
2022-11-24T18:58:55.473Z,6.50
2022-11-24T19:01:26.743Z,6.50
2022-11-24T19:03:56.686Z,6.50
2022-11-24T19:06:36.472Z,6.50
2022-11-24T19:09:08.397Z,6.50
2022-11-24T19:11:38.599Z,6.48
2022-11-24T19:14:08.968Z,6.46
2022-11-24T19:16:36.222Z,6.40
2022-11-24T19:19:03.758Z,6.40
2022-11-24T19:21:33.519Z,6.40
2022-11-24T19:24:04.988Z,6.40
2022-11-24T19:26:35.585Z,6.40
2022-11-24T19:29:03.803Z,6.40
2022-11-24T19:31:30.783Z,6.30
2022-11-24T19:33:59.902Z,6.30
2022-11-24T19:36:26.694Z,6.30
2022-11-24T19:38:56.883Z,6.28
2022-11-24T19:41:30.154Z,6.20
2022-11-24T19:43:58.748Z,6.20
2022-11-24T19:46:29.484Z,6.20
2022-11-24T19:48:59.965Z,6.20
2022-11-24T19:51:34.314Z,6.16
2022-11-24T19:54:02.299Z,6.10
2022-11-24T19:56:34.783Z,6.10
2022-11-24T19:59:04.091Z,6.10
2022-11-24T20:01:34.553Z,6.10
2022-11-24T20:04:05.567Z,6.00
2022-11-24T20:06:43.492Z,6.00
2022-11-24T20:09:14.425Z,6.00
2022-11-24T20:11:42.369Z,6.00
2022-11-24T20:14:13.295Z,6.00
2022-11-24T20:16:41.035Z,6.00
2022-11-24T20:19:12.423Z,5.96
2022-11-24T20:21:41.537Z,5.92
2022-11-24T20:24:15.678Z,5.90
2022-11-24T20:26:49.982Z,5.90
2022-11-24T20:29:17.274Z,5.90
2022-11-24T20:31:56.946Z,5.90
2022-11-24T20:34:24.659Z,5.90
2022-11-24T20:36:53.073Z,5.90
2022-11-24T20:39:26.229Z,5.90
2022-11-24T20:41:54.975Z,5.90
2022-11-24T20:44:23.281Z,5.80
2022-11-24T20:46:49.960Z,5.80
2022-11-24T20:49:20.728Z,5.80
2022-11-24T20:51:47.925Z,5.80
2022-11-24T20:54:17.434Z,5.74
2022-11-24T20:56:46.385Z,5.72
2022-11-24T20:59:16.814Z,5.70
2022-11-24T21:01:46.113Z,5.70
2022-11-24T21:04:21.411Z,5.70
2022-11-24T21:06:48.344Z,5.70
2022-11-24T21:09:15.033Z,5.70
2022-11-24T21:11:41.905Z,5.70
2022-11-24T21:14:10.408Z,5.70
2022-11-24T21:16:40.158Z,5.62
2022-11-24T21:19:11.807Z,5.60
2022-11-24T21:21:41.051Z,5.60
2022-11-24T21:24:15.734Z,5.60
2022-11-24T21:26:47.694Z,5.60
2022-11-24T21:29:22.441Z,5.60
2022-11-24T21:31:49.435Z,5.60
2022-11-24T21:34:18.950Z,5.60
2022-11-24T21:36:46.268Z,5.60
2022-11-24T21:39:14.828Z,5.56
2022-11-24T21:41:42.695Z,5.56
2022-11-24T21:44:12.482Z,5.50
2022-11-24T21:46:44.174Z,5.50
2022-11-24T21:49:13.191Z,5.50
2022-11-24T21:51:40.098Z,5.50
2022-11-24T21:54:07.025Z,5.50
2022-11-24T21:56:33.677Z,5.50
2022-11-24T21:59:00.330Z,5.50
2022-11-24T22:01:28.512Z,5.50
2022-11-24T22:03:55.590Z,5.40
2022-11-24T22:06:22.529Z,5.40
2022-11-24T22:08:49.759Z,5.40
2022-11-24T22:11:22.905Z,5.40
2022-11-24T22:13:51.082Z,5.36
2022-11-24T22:16:23.849Z,5.30
2022-11-24T22:18:51.163Z,5.30
2022-11-24T22:21:30.184Z,5.30
2022-11-24T22:23:57.008Z,5.28
2022-11-24T22:26:25.642Z,5.20
2022-11-24T22:28:54.288Z,5.20
2022-11-24T22:31:28.043Z,5.20
2022-11-24T22:33:56.246Z,5.14
2022-11-24T22:36:26.325Z,5.10
2022-11-24T22:38:59.478Z,5.10
2022-11-24T22:41:26.155Z,5.10
2022-11-24T22:43:54.405Z,5.10
2022-11-24T22:46:26.215Z,5.10
2022-11-24T22:48:54.709Z,5.10
2022-11-24T22:51:25.665Z,5.02
2022-11-24T22:53:55.344Z,5.00
2022-11-24T22:56:23.131Z,5.00
2022-11-24T22:58:50.511Z,5.00
2022-11-24T23:01:24.068Z,4.90
2022-11-24T23:03:54.540Z,4.90
2022-11-24T23:06:27.723Z,4.86
2022-11-24T23:08:55.279Z,4.80
2022-11-24T23:11:34.900Z,4.80
2022-11-24T23:14:08.778Z,4.78
2022-11-24T23:16:35.506Z,4.70
2022-11-24T23:19:02.270Z,4.70
2022-11-24T23:21:33.002Z,4.70
2022-11-24T23:24:02.591Z,4.60
2022-11-24T23:26:33.831Z,4.60
2022-11-24T23:29:00.773Z,4.60
2022-11-24T23:31:28.962Z,4.60
2022-11-24T23:34:01.937Z,4.50
2022-11-24T23:36:29.745Z,4.50
2022-11-24T23:39:02.180Z,4.48
2022-11-24T23:41:30.615Z,4.40
2022-11-24T23:43:57.557Z,4.40
2022-11-24T23:46:27.229Z,4.30
2022-11-24T23:48:55.464Z,4.30
2022-11-24T23:51:26.330Z,4.30
2022-11-24T23:53:54.244Z,4.20
2022-11-24T23:56:24.825Z,4.20
2022-11-24T23:58:51.980Z,4.18
